LIMW/AOT METAR and TAF weather

Enter ICAO airport designator
Station Type Date Time Source
LIMW METAR 2019/04/18 18:50 UTC NOAA

LIMW 181850Z AUTO 12011KT 080V140 9999 BKN099/// 16/03 Q1024


Station Type Date Time Source
LIMW Decoded METAR 2019/04/18 18:50 UTC NOAA

Station name not available
Apr 18, 2019 - 02:50 PM EDT / 2019.04.18 1850 UTC
Wind: from the ESE (120 degrees) at 13 MPH (11 KT) (direction variable):0
Visibility: greater than 7 mile(s):0
Sky conditions: mostly cloudy
Temperature: 60 F (16 C)
Dew Point: 37 F (3 C)
Relative Humidity: 41%
Pressure (altimeter): 30.24 in. Hg (1024 hPa)
ob: LIMW 181850Z AUTO 12011KT 080V140 9999 BKN099/// 16/03 Q1024
cycle: 19

Station Type Date Time Source
LIMW TAF UTC NOAA

Error!

Example: see airport list